sensor_id;sensor_type;location;lat;lon;timestamp;pressure;altitude;pressure_sealevel;temperature;humidity
20256;BME280;10286;59.364;18.016;2022-10-31T00:02:19;101245.44;;;5.29;100.00
20256;BME280;10286;59.364;18.016;2022-10-31T00:04:46;101242.00;;;5.29;100.00
20256;BME280;10286;59.364;18.016;2022-10-31T00:07:12;101233.38;;;5.27;100.00
20256;BME280;10286;59.364;18.016;2022-10-31T00:09:39;101242.16;;;5.26;100.00
20256;BME280;10286;59.364;18.016;2022-10-31T00:12:07;101239.56;;;5.26;100.00
20256;BME280;10286;59.364;18.016;2022-10-31T00:14:34;101237.94;;;5.23;100.00
20256;BME280;10286;59.364;18.016;2022-10-31T00:17:01;101227.72;;;5.19;100.00
20256;BME280;10286;59.364;18.016;2022-10-31T00:19:28;101229.66;;;5.15;100.00
20256;BME280;10286;59.364;18.016;2022-10-31T00:21:55;101226.78;;;5.20;100.00
20256;BME280;10286;59.364;18.016;2022-10-31T00:24:21;101228.41;;;5.22;100.00
20256;BME280;10286;59.364;18.016;2022-10-31T00:26:48;101229.91;;;5.26;100.00
20256;BME280;10286;59.364;18.016;2022-10-31T00:29:16;101219.84;;;5.19;100.00
20256;BME280;10286;59.364;18.016;2022-10-31T00:31:43;101227.47;;;5.23;100.00
20256;BME280;10286;59.364;18.016;2022-10-31T00:34:10;101237.88;;;5.25;100.00
20256;BME280;10286;59.364;18.016;2022-10-31T00:36:37;101235.06;;;5.28;100.00
20256;BME280;10286;59.364;18.016;2022-10-31T00:39:03;101228.81;;;5.30;100.00
20256;BME280;10286;59.364;18.016;2022-10-31T00:41:30;101234.84;;;5.32;100.00
20256;BME280;10286;59.364;18.016;2022-10-31T00:43:57;101231.28;;;5.33;100.00
20256;BME280;10286;59.364;18.016;2022-10-31T00:46:25;101228.66;;;5.33;100.00
20256;BME280;10286;59.364;18.016;2022-10-31T00:48:52;101231.53;;;5.29;100.00
20256;BME280;10286;59.364;18.016;2022-10-31T00:51:19;101229.25;;;5.38;100.00
20256;BME280;10286;59.364;18.016;2022-10-31T00:53:46;101226.47;;;5.41;100.00
20256;BME280;10286;59.364;18.016;2022-10-31T00:56:12;101231.78;;;5.40;100.00
20256;BME280;10286;59.364;18.016;2022-10-31T00:58:39;101232.81;;;5.37;100.00
20256;BME280;10286;59.364;18.016;2022-10-31T01:01:06;101231.00;;;5.38;100.00
20256;BME280;10286;59.364;18.016;2022-10-31T01:03:34;101232.88;;;5.36;100.00
20256;BME280;10286;59.364;18.016;2022-10-31T01:06:01;101222.34;;;5.37;100.00
20256;BME280;10286;59.364;18.016;2022-10-31T01:08:28;101220.53;;;5.38;100.00
20256;BME280;10286;59.364;18.016;2022-10-31T01:11:01;101221.97;;;5.43;100.00
20256;BME280;10286;59.364;18.016;2022-10-31T01:13:28;101223.31;;;5.50;100.00
20256;BME280;10286;59.364;18.016;2022-10-31T01:15:55;101216.16;;;5.54;100.00
20256;BME280;10286;59.364;18.016;2022-10-31T01:18:22;101217.47;;;5.61;100.00
20256;BME280;10286;59.364;18.016;2022-10-31T01:20:57;101213.69;;;5.66;100.00
20256;BME280;10286;59.364;18.016;2022-10-31T01:23:25;101208.56;;;5.65;100.00
20256;BME280;10286;59.364;18.016;2022-10-31T01:25:58;101211.50;;;5.59;100.00
20256;BME280;10286;59.364;18.016;2022-10-31T01:28:25;101218.53;;;5.58;100.00
20256;BME280;10286;59.364;18.016;2022-10-31T01:30:52;101220.09;;;5.61;100.00
20256;BME280;10286;59.364;18.016;2022-10-31T01:33:18;101215.72;;;5.61;100.00
20256;BME280;10286;59.364;18.016;2022-10-31T01:35:45;101210.38;;;5.63;100.00
20256;BME280;10286;59.364;18.016;2022-10-31T01:38:13;101212.09;;;5.64;100.00
20256;BME280;10286;59.364;18.016;2022-10-31T01:40:40;101216.41;;;5.65;100.00
20256;BME280;10286;59.364;18.016;2022-10-31T01:43:09;101205.94;;;5.65;100.00
20256;BME280;10286;59.364;18.016;2022-10-31T01:45:38;101202.97;;;5.71;100.00
20256;BME280;10286;59.364;18.016;2022-10-31T01:48:04;101206.25;;;5.74;100.00
20256;BME280;10286;59.364;18.016;2022-10-31T01:50:32;101207.34;;;5.70;100.00
20256;BME280;10286;59.364;18.016;2022-10-31T01:53:00;101215.69;;;5.77;100.00
20256;BME280;10286;59.364;18.016;2022-10-31T01:55:30;101211.06;;;5.82;100.00
20256;BME280;10286;59.364;18.016;2022-10-31T01:57:59;101214.38;;;5.85;100.00
20256;BME280;10286;59.364;18.016;2022-10-31T02:00:27;101216.97;;;5.85;100.00
20256;BME280;10286;59.364;18.016;2022-10-31T02:02:54;101210.88;;;5.85;100.00
20256;BME280;10286;59.364;18.016;2022-10-31T02:05:21;101218.75;;;5.85;100.00
20256;BME280;10286;59.364;18.016;2022-10-31T02:07:51;101212.59;;;5.86;100.00
20256;BME280;10286;59.364;18.016;2022-10-31T02:10:20;101215.13;;;5.87;100.00
20256;BME280;10286;59.364;18.016;2022-10-31T02:12:49;101214.28;;;5.87;100.00
20256;BME280;10286;59.364;18.016;2022-10-31T02:15:16;101213.44;;;5.86;100.00
20256;BME280;10286;59.364;18.016;2022-10-31T02:17:43;101209.88;;;5.87;100.00
20256;BME280;10286;59.364;18.016;2022-10-31T02:20:12;101208.19;;;5.86;100.00
20256;BME280;10286;59.364;18.016;2022-10-31T02:22:45;101215.97;;;5.88;100.00
20256;BME280;10286;59.364;18.016;2022-10-31T02:25:23;101211.50;;;5.90;100.00
20256;BME280;10286;59.364;18.016;2022-10-31T02:28:00;101208.75;;;5.91;100.00
20256;BME280;10286;59.364;18.016;2022-10-31T02:30:34;101207.00;;;5.92;100.00
20256;BME280;10286;59.364;18.016;2022-10-31T02:33:14;101205.13;;;5.94;100.00
20256;BME280;10286;59.364;18.016;2022-10-31T02:35:47;101208.59;;;5.94;100.00
20256;BME280;10286;59.364;18.016;2022-10-31T02:38:21;101211.19;;;5.94;100.00
20256;BME280;10286;59.364;18.016;2022-10-31T02:40:52;101208.31;;;5.99;100.00
20256;BME280;10286;59.364;18.016;2022-10-31T02:43:20;101213.56;;;5.99;100.00
20256;BME280;10286;59.364;18.016;2022-10-31T02:45:48;101217.13;;;5.98;100.00
20256;BME280;10286;59.364;18.016;2022-10-31T02:48:18;101209.50;;;5.93;100.00
20256;BME280;10286;59.364;18.016;2022-10-31T02:50:47;101222.53;;;5.95;100.00
20256;BME280;10286;59.364;18.016;2022-10-31T02:53:17;101225.34;;;5.92;100.00
20256;BME280;10286;59.364;18.016;2022-10-31T02:55:49;101219.16;;;5.93;100.00
20256;BME280;10286;59.364;18.016;2022-10-31T02:58:17;101225.16;;;5.95;100.00
20256;BME280;10286;59.364;18.016;2022-10-31T03:00:48;101225.22;;;5.93;100.00
20256;BME280;10286;59.364;18.016;2022-10-31T03:03:23;101221.78;;;5.93;100.00
20256;BME280;10286;59.364;18.016;2022-10-31T03:05:55;101222.72;;;5.92;100.00
20256;BME280;10286;59.364;18.016;2022-10-31T03:08:28;101228.78;;;5.92;100.00
20256;BME280;10286;59.364;18.016;2022-10-31T03:10:57;101220.00;;;5.93;100.00
20256;BME280;10286;59.364;18.016;2022-10-31T03:13:26;101218.13;;;5.95;100.00
20256;BME280;10286;59.364;18.016;2022-10-31T03:15:59;101219.75;;;5.98;100.00
20256;BME280;10286;59.364;18.016;2022-10-31T03:18:31;101229.09;;;6.02;100.00
20256;BME280;10286;59.364;18.016;2022-10-31T03:21:00;101229.72;;;6.07;100.00
20256;BME280;10286;59.364;18.016;2022-10-31T03:23:28;101225.22;;;6.09;100.00
20256;BME280;10286;59.364;18.016;2022-10-31T03:25:56;101223.16;;;6.14;100.00
20256;BME280;10286;59.364;18.016;2022-10-31T03:28:26;101219.44;;;6.18;100.00
20256;BME280;10286;59.364;18.016;2022-10-31T03:30:54;101226.94;;;6.24;100.00
20256;BME280;10286;59.364;18.016;2022-10-31T03:33:24;101223.38;;;6.25;100.00
20256;BME280;10286;59.364;18.016;2022-10-31T03:35:54;101213.00;;;6.23;100.00
20256;BME280;10286;59.364;18.016;2022-10-31T03:38:22;101216.19;;;6.28;100.00
20256;BME280;10286;59.364;18.016;2022-10-31T03:40:49;101215.16;;;6.31;100.00
20256;BME280;10286;59.364;18.016;2022-10-31T03:43:18;101223.59;;;6.36;100.00
20256;BME280;10286;59.364;18.016;2022-10-31T03:45:47;101213.84;;;6.38;100.00
20256;BME280;10286;59.364;18.016;2022-10-31T03:48:14;101221.75;;;6.52;100.00
20256;BME280;10286;59.364;18.016;2022-10-31T03:50:44;101219.44;;;6.61;100.00
20256;BME280;10286;59.364;18.016;2022-10-31T03:53:15;101223.44;;;6.67;100.00
20256;BME280;10286;59.364;18.016;2022-10-31T03:55:45;101213.53;;;6.72;100.00
20256;BME280;10286;59.364;18.016;2022-10-31T03:58:16;101205.47;;;6.74;100.00
20256;BME280;10286;59.364;18.016;2022-10-31T04:00:45;101208.66;;;6.79;100.00
20256;BME280;10286;59.364;18.016;2022-10-31T04:03:13;101201.31;;;6.84;100.00
20256;BME280;10286;59.364;18.016;2022-10-31T04:05:41;101213.97;;;6.92;100.00
20256;BME280;10286;59.364;18.016;2022-10-31T04:08:11;101200.47;;;6.98;100.00
20256;BME280;10286;59.364;18.016;2022-10-31T04:10:42;101207.13;;;7.03;100.00
20256;BME280;10286;59.364;18.016;2022-10-31T04:13:11;101200.75;;;7.07;100.00
20256;BME280;10286;59.364;18.016;2022-10-31T04:15:39;101200.47;;;7.12;100.00
20256;BME280;10286;59.364;18.016;2022-10-31T04:18:08;101197.56;;;7.16;100.00
20256;BME280;10286;59.364;18.016;2022-10-31T04:20:36;101192.84;;;7.21;100.00
20256;BME280;10286;59.364;18.016;2022-10-31T04:23:03;101186.25;;;7.28;100.00
20256;BME280;10286;59.364;18.016;2022-10-31T04:25:30;101192.06;;;7.33;100.00
20256;BME280;10286;59.364;18.016;2022-10-31T04:27:58;101189.25;;;7.36;100.00
20256;BME280;10286;59.364;18.016;2022-10-31T04:30:25;101183.69;;;7.41;100.00
20256;BME280;10286;59.364;18.016;2022-10-31T04:32:52;101185.28;;;7.43;100.00
20256;BME280;10286;59.364;18.016;2022-10-31T04:35:19;101188.75;;;7.44;100.00
20256;BME280;10286;59.364;18.016;2022-10-31T04:37:46;101182.47;;;7.46;100.00
20256;BME280;10286;59.364;18.016;2022-10-31T04:40:13;101182.25;;;7.49;100.00
20256;BME280;10286;59.364;18.016;2022-10-31T04:42:40;101178.69;;;7.50;100.00
20256;BME280;10286;59.364;18.016;2022-10-31T04:45:09;101176.63;;;7.55;100.00
20256;BME280;10286;59.364;18.016;2022-10-31T04:47:36;101172.13;;;7.57;100.00
20256;BME280;10286;59.364;18.016;2022-10-31T04:50:03;101169.38;;;7.59;100.00
20256;BME280;10286;59.364;18.016;2022-10-31T04:52:30;101171.06;;;7.60;100.00
20256;BME280;10286;59.364;18.016;2022-10-31T04:54:57;101175.00;;;7.67;100.00
20256;BME280;10286;59.364;18.016;2022-10-31T04:57:24;101174.69;;;7.71;100.00
20256;BME280;10286;59.364;18.016;2022-10-31T04:59:51;101184.97;;;7.74;100.00
20256;BME280;10286;59.364;18.016;2022-10-31T05:02:19;101177.75;;;7.78;100.00
20256;BME280;10286;59.364;18.016;2022-10-31T05:04:45;101175.84;;;7.80;100.00
20256;BME280;10286;59.364;18.016;2022-10-31T05:07:12;101173.16;;;7.81;100.00
20256;BME280;10286;59.364;18.016;2022-10-31T05:09:39;101175.56;;;7.84;100.00
20256;BME280;10286;59.364;18.016;2022-10-31T05:12:06;101178.00;;;7.87;100.00
20256;BME280;10286;59.364;18.016;2022-10-31T05:14:33;101172.66;;;7.89;100.00
20256;BME280;10286;59.364;18.016;2022-10-31T05:16:59;101169.91;;;7.90;100.00
20256;BME280;10286;59.364;18.016;2022-10-31T05:19:28;101161.91;;;7.92;100.00
20256;BME280;10286;59.364;18.016;2022-10-31T05:21:55;101161.81;;;7.93;100.00
20256;BME280;10286;59.364;18.016;2022-10-31T05:24:22;101170.53;;;7.94;100.00
20256;BME280;10286;59.364;18.016;2022-10-31T05:26:49;101166.97;;;7.95;100.00
20256;BME280;10286;59.364;18.016;2022-10-31T05:29:15;101159.81;;;7.97;100.00
20256;BME280;10286;59.364;18.016;2022-10-31T05:31:42;101163.41;;;7.96;100.00
20256;BME280;10286;59.364;18.016;2022-10-31T05:34:09;101164.22;;;7.96;100.00
20256;BME280;10286;59.364;18.016;2022-10-31T05:36:37;101167.63;;;7.98;100.00
20256;BME280;10286;59.364;18.016;2022-10-31T05:39:04;101161.41;;;7.99;100.00
20256;BME280;10286;59.364;18.016;2022-10-31T05:41:31;101153.53;;;7.99;100.00
20256;BME280;10286;59.364;18.016;2022-10-31T05:43:58;101149.84;;;8.02;100.00
20256;BME280;10286;59.364;18.016;2022-10-31T05:46:25;101152.75;;;7.97;100.00
20256;BME280;10286;59.364;18.016;2022-10-31T05:48:51;101158.78;;;7.99;100.00
20256;BME280;10286;59.364;18.016;2022-10-31T05:51:18;101160.25;;;8.03;100.00
20256;BME280;10286;59.364;18.016;2022-10-31T05:53:47;101156.78;;;8.03;100.00
20256;BME280;10286;59.364;18.016;2022-10-31T05:56:14;101151.44;;;8.04;100.00
20256;BME280;10286;59.364;18.016;2022-10-31T05:58:41;101159.31;;;8.04;100.00
20256;BME280;10286;59.364;18.016;2022-10-31T06:01:08;101166.13;;;8.07;100.00
20256;BME280;10286;59.364;18.016;2022-10-31T06:03:34;101164.38;;;8.07;100.00
20256;BME280;10286;59.364;18.016;2022-10-31T06:06:01;101165.19;;;8.08;100.00
20256;BME280;10286;59.364;18.016;2022-10-31T06:08:28;101167.63;;;8.11;100.00
20256;BME280;10286;59.364;18.016;2022-10-31T06:10:57;101164.78;;;8.14;100.00
20256;BME280;10286;59.364;18.016;2022-10-31T06:13:24;101162.03;;;8.15;100.00
20256;BME280;10286;59.364;18.016;2022-10-31T06:15:50;101156.78;;;8.15;100.00
20256;BME280;10286;59.364;18.016;2022-10-31T06:18:17;101160.38;;;8.14;100.00
20256;BME280;10286;59.364;18.016;2022-10-31T06:20:44;101158.31;;;8.19;100.00
20256;BME280;10286;59.364;18.016;2022-10-31T06:23:11;101164.31;;;8.21;100.00
20256;BME280;10286;59.364;18.016;2022-10-31T06:25:38;101163.97;;;8.26;100.00
20256;BME280;10286;59.364;18.016;2022-10-31T06:28:06;101178.94;;;8.25;100.00
20256;BME280;10286;59.364;18.016;2022-10-31T06:30:33;101163.91;;;8.27;100.00
20256;BME280;10286;59.364;18.016;2022-10-31T06:33:03;101167.25;;;8.29;100.00
20256;BME280;10286;59.364;18.016;2022-10-31T06:35:30;101172.31;;;8.32;100.00
20256;BME280;10286;59.364;18.016;2022-10-31T06:37:56;101166.84;;;8.35;100.00
20256;BME280;10286;59.364;18.016;2022-10-31T06:40:23;101169.97;;;8.40;100.00
20256;BME280;10286;59.364;18.016;2022-10-31T06:42:55;101163.47;;;8.45;100.00
20256;BME280;10286;59.364;18.016;2022-10-31T06:45:24;101167.56;;;8.49;100.00
20256;BME280;10286;59.364;18.016;2022-10-31T06:47:51;101168.22;;;8.53;100.00
20256;BME280;10286;59.364;18.016;2022-10-31T06:50:18;101176.75;;;8.56;100.00
20256;BME280;10286;59.364;18.016;2022-10-31T06:52:49;101173.78;;;8.61;100.00
20256;BME280;10286;59.364;18.016;2022-10-31T06:55:16;101175.28;;;8.65;100.00
20256;BME280;10286;59.364;18.016;2022-10-31T06:57:48;101180.31;;;8.68;100.00
20256;BME280;10286;59.364;18.016;2022-10-31T07:00:16;101189.16;;;8.67;100.00
20256;BME280;10286;59.364;18.016;2022-10-31T07:02:51;101183.78;;;8.68;100.00
20256;BME280;10286;59.364;18.016;2022-10-31T07:05:19;101180.94;;;8.71;100.00
20256;BME280;10286;59.364;18.016;2022-10-31T07:07:46;101188.72;;;8.73;100.00
20256;BME280;10286;59.364;18.016;2022-10-31T07:10:14;101187.78;;;8.74;100.00
20256;BME280;10286;59.364;18.016;2022-10-31T07:12:41;101195.47;;;8.77;100.00
20256;BME280;10286;59.364;18.016;2022-10-31T07:15:08;101192.81;;;8.77;100.00
20256;BME280;10286;59.364;18.016;2022-10-31T07:17:35;101181.13;;;8.81;100.00
20256;BME280;10286;59.364;18.016;2022-10-31T07:20:04;101193.03;;;8.86;100.00
20256;BME280;10286;59.364;18.016;2022-10-31T07:22:32;101183.34;;;8.87;100.00
20256;BME280;10286;59.364;18.016;2022-10-31T07:25:00;101174.50;;;8.88;100.00
20256;BME280;10286;59.364;18.016;2022-10-31T07:27:27;101188.41;;;8.90;100.00
20256;BME280;10286;59.364;18.016;2022-10-31T07:29:54;101203.25;;;8.91;100.00
20256;BME280;10286;59.364;18.016;2022-10-31T07:32:21;101195.13;;;8.94;100.00
20256;BME280;10286;59.364;18.016;2022-10-31T07:34:48;101191.53;;;8.95;100.00
20256;BME280;10286;59.364;18.016;2022-10-31T07:37:17;101180.78;;;8.98;100.00
20256;BME280;10286;59.364;18.016;2022-10-31T07:39:44;101182.38;;;9.00;100.00
20256;BME280;10286;59.364;18.016;2022-10-31T07:42:11;101181.31;;;9.03;100.00
20256;BME280;10286;59.364;18.016;2022-10-31T07:44:38;101183.75;;;9.06;100.00
20256;BME280;10286;59.364;18.016;2022-10-31T07:47:05;101193.19;;;9.08;100.00
20256;BME280;10286;59.364;18.016;2022-10-31T07:49:32;101184.34;;;9.09;100.00
20256;BME280;10286;59.364;18.016;2022-10-31T07:51:59;101185.81;;;9.13;100.00
20256;BME280;10286;59.364;18.016;2022-10-31T07:54:28;101186.66;;;9.14;100.00
20256;BME280;10286;59.364;18.016;2022-10-31T07:56:55;101181.91;;;9.19;100.00
20256;BME280;10286;59.364;18.016;2022-10-31T07:59:22;101187.06;;;9.20;100.00
20256;BME280;10286;59.364;18.016;2022-10-31T08:01:51;101177.28;;;9.22;100.00
20256;BME280;10286;59.364;18.016;2022-10-31T08:04:18;101174.31;;;9.27;100.00
20256;BME280;10286;59.364;18.016;2022-10-31T08:06:45;101176.50;;;9.33;100.00
20256;BME280;10286;59.364;18.016;2022-10-31T08:09:13;101180.91;;;9.32;100.00
20256;BME280;10286;59.364;18.016;2022-10-31T08:11:42;101193.03;;;9.35;100.00
20256;BME280;10286;59.364;18.016;2022-10-31T08:14:09;101189.94;;;9.41;100.00
20256;BME280;10286;59.364;18.016;2022-10-31T08:16:37;101194.25;;;9.42;100.00
20256;BME280;10286;59.364;18.016;2022-10-31T08:19:04;101201.34;;;9.41;100.00
20256;BME280;10286;59.364;18.016;2022-10-31T08:21:31;101188.56;;;9.48;100.00
20256;BME280;10286;59.364;18.016;2022-10-31T08:23:59;101196.75;;;9.56;100.00
20256;BME280;10286;59.364;18.016;2022-10-31T08:26:26;101191.38;;;9.57;100.00
20256;BME280;10286;59.364;18.016;2022-10-31T08:28:54;101186.94;;;9.58;100.00
20256;BME280;10286;59.364;18.016;2022-10-31T08:31:21;101183.84;;;9.64;100.00
20256;BME280;10286;59.364;18.016;2022-10-31T08:33:49;101188.88;;;9.67;100.00
20256;BME280;10286;59.364;18.016;2022-10-31T08:36:15;101188.47;;;9.73;100.00
20256;BME280;10286;59.364;18.016;2022-10-31T08:38:42;101194.31;;;9.76;100.00
20256;BME280;10286;59.364;18.016;2022-10-31T08:41:09;101202.38;;;9.75;100.00
20256;BME280;10286;59.364;18.016;2022-10-31T08:43:37;101188.97;;;9.78;100.00
20256;BME280;10286;59.364;18.016;2022-10-31T08:46:05;101183.59;;;9.79;100.00
20256;BME280;10286;59.364;18.016;2022-10-31T08:48:32;101190.41;;;9.82;100.00
20256;BME280;10286;59.364;18.016;2022-10-31T08:50:59;101182.50;;;9.82;100.00
20256;BME280;10286;59.364;18.016;2022-10-31T08:53:26;101180.59;;;9.84;100.00
20256;BME280;10286;59.364;18.016;2022-10-31T08:55:54;101186.34;;;9.89;100.00
20256;BME280;10286;59.364;18.016;2022-10-31T08:58:21;101185.28;;;9.91;100.00
20256;BME280;10286;59.364;18.016;2022-10-31T09:00:49;101187.47;;;9.97;100.00
20256;BME280;10286;59.364;18.016;2022-10-31T09:03:20;101179.25;;;10.02;100.00
20256;BME280;10286;59.364;18.016;2022-10-31T09:05:48;101185.00;;;10.07;100.00
20256;BME280;10286;59.364;18.016;2022-10-31T09:08:15;101181.81;;;10.14;100.00
20256;BME280;10286;59.364;18.016;2022-10-31T09:10:42;101188.66;;;10.17;100.00
20256;BME280;10286;59.364;18.016;2022-10-31T09:13:10;101181.34;;;10.20;100.00
20256;BME280;10286;59.364;18.016;2022-10-31T09:15:38;101187.84;;;10.27;100.00
20256;BME280;10286;59.364;18.016;2022-10-31T09:18:06;101197.69;;;10.25;100.00
20256;BME280;10286;59.364;18.016;2022-10-31T09:20:35;101203.56;;;10.28;100.00
20256;BME280;10286;59.364;18.016;2022-10-31T09:23:03;101198.03;;;10.31;100.00
20256;BME280;10286;59.364;18.016;2022-10-31T09:25:31;101203.59;;;10.39;100.00
20256;BME280;10286;59.364;18.016;2022-10-31T09:27:59;101206.00;;;10.42;100.00
20256;BME280;10286;59.364;18.016;2022-10-31T09:30:27;101209.34;;;10.44;100.00
20256;BME280;10286;59.364;18.016;2022-10-31T09:32:54;101205.53;;;10.48;100.00
20256;BME280;10286;59.364;18.016;2022-10-31T09:35:21;101207.59;;;10.56;100.00
20256;BME280;10286;59.364;18.016;2022-10-31T09:37:54;101207.59;;;10.56;100.00
20256;BME280;10286;59.364;18.016;2022-10-31T09:40:21;101197.75;;;10.58;100.00
20256;BME280;10286;59.364;18.016;2022-10-31T09:42:51;101201.00;;;10.61;100.00
20256;BME280;10286;59.364;18.016;2022-10-31T09:45:21;101200.38;;;10.58;100.00
20256;BME280;10286;59.364;18.016;2022-10-31T09:47:54;101188.75;;;10.60;100.00
20256;BME280;10286;59.364;18.016;2022-10-31T09:50:24;101188.88;;;10.70;100.00
20256;BME280;10286;59.364;18.016;2022-10-31T09:52:57;101198.00;;;10.77;100.00
20256;BME280;10286;59.364;18.016;2022-10-31T09:55:27;101196.94;;;10.79;100.00
20256;BME280;10286;59.364;18.016;2022-10-31T09:57:58;101200.28;;;10.81;100.00
20256;BME280;10286;59.364;18.016;2022-10-31T10:00:25;101199.09;;;10.85;100.00
20256;BME280;10286;59.364;18.016;2022-10-31T10:02:53;101196.44;;;10.85;100.00
20256;BME280;10286;59.364;18.016;2022-10-31T10:05:24;101198.28;;;10.85;100.00
20256;BME280;10286;59.364;18.016;2022-10-31T10:07:58;101192.84;;;10.86;100.00
20256;BME280;10286;59.364;18.016;2022-10-31T10:10:28;101191.88;;;10.87;100.00
20256;BME280;10286;59.364;18.016;2022-10-31T10:15:47;101194.28;;;10.90;100.00
20256;BME280;10286;59.364;18.016;2022-10-31T10:18:21;101190.56;;;10.93;100.00
20256;BME280;10286;59.364;18.016;2022-10-31T10:20:54;101194.75;;;10.95;100.00
20256;BME280;10286;59.364;18.016;2022-10-31T10:23:29;101192.88;;;10.97;100.00
20256;BME280;10286;59.364;18.016;2022-10-31T10:26:01;101196.22;;;10.99;100.00
20256;BME280;10286;59.364;18.016;2022-10-31T10:28:29;101195.25;;;11.00;100.00
20256;BME280;10286;59.364;18.016;2022-10-31T10:31:05;101197.28;;;10.97;100.00
20256;BME280;10286;59.364;18.016;2022-10-31T10:33:35;101193.69;;;10.98;100.00
20256;BME280;10286;59.364;18.016;2022-10-31T10:36:04;101194.75;;;10.95;100.00
20256;BME280;10286;59.364;18.016;2022-10-31T10:38:34;101200.91;;;10.96;100.00
20256;BME280;10286;59.364;18.016;2022-10-31T10:41:05;101201.75;;;10.96;100.00
20256;BME280;10286;59.364;18.016;2022-10-31T10:43:35;101195.00;;;10.92;100.00
20256;BME280;10286;59.364;18.016;2022-10-31T10:46:06;101197.28;;;10.97;100.00
20256;BME280;10286;59.364;18.016;2022-10-31T10:48:58;101191.28;;;10.95;100.00
20256;BME280;10286;59.364;18.016;2022-10-31T10:51:31;101194.28;;;11.01;100.00
20256;BME280;10286;59.364;18.016;2022-10-31T10:54:10;101195.00;;;11.03;100.00
20256;BME280;10286;59.364;18.016;2022-10-31T10:56:43;101194.06;;;11.04;100.00
20256;BME280;10286;59.364;18.016;2022-10-31T10:59:13;101197.41;;;11.06;100.00
20256;BME280;10286;59.364;18.016;2022-10-31T11:01:40;101195.38;;;11.10;100.00
20256;BME280;10286;59.364;18.016;2022-10-31T11:06:56;101201.00;;;11.16;100.00
20256;BME280;10286;59.364;18.016;2022-10-31T11:09:25;101198.72;;;11.23;100.00
20256;BME280;10286;59.364;18.016;2022-10-31T11:11:51;101202.69;;;11.28;100.00
20256;BME280;10286;59.364;18.016;2022-10-31T11:14:18;101200.50;;;11.33;100.00
20256;BME280;10286;59.364;18.016;2022-10-31T11:16:47;101206.28;;;11.38;100.00
20256;BME280;10286;59.364;18.016;2022-10-31T11:19:16;101209.38;;;11.43;100.00
20256;BME280;10286;59.364;18.016;2022-10-31T11:21:43;101217.06;;;11.46;100.00
20256;BME280;10286;59.364;18.016;2022-10-31T11:24:14;101213.22;;;11.50;100.00
20256;BME280;10286;59.364;18.016;2022-10-31T11:26:43;101208.31;;;11.57;100.00
20256;BME280;10286;59.364;18.016;2022-10-31T11:29:14;101208.91;;;11.60;100.00
20256;BME280;10286;59.364;18.016;2022-10-31T11:31:42;101207.19;;;11.70;100.00
20256;BME280;10286;59.364;18.016;2022-10-31T11:34:14;101209.22;;;11.78;100.00
20256;BME280;10286;59.364;18.016;2022-10-31T11:36:42;101213.13;;;11.94;100.00
20256;BME280;10286;59.364;18.016;2022-10-31T11:39:14;101211.34;;;12.15;100.00
20256;BME280;10286;59.364;18.016;2022-10-31T11:41:44;101191.69;;;12.79;100.00
20256;BME280;10286;59.364;18.016;2022-10-31T11:44:12;101200.19;;;13.42;100.00
20256;BME280;10286;59.364;18.016;2022-10-31T11:46:43;101201.66;;;13.84;100.00
20256;BME280;10286;59.364;18.016;2022-10-31T11:49:13;101198.53;;;13.60;100.00
20256;BME280;10286;59.364;18.016;2022-10-31T11:51:42;101189.34;;;13.55;100.00
20256;BME280;10286;59.364;18.016;2022-10-31T11:54:16;101195.69;;;14.20;100.00
20256;BME280;10286;59.364;18.016;2022-10-31T11:56:46;101194.53;;;14.03;100.00
20256;BME280;10286;59.364;18.016;2022-10-31T11:59:23;101201.69;;;14.31;100.00
20256;BME280;10286;59.364;18.016;2022-10-31T12:01:51;101198.00;;;14.97;100.00
20256;BME280;10286;59.364;18.016;2022-10-31T12:04:19;101194.81;;;15.30;100.00
20256;BME280;10286;59.364;18.016;2022-10-31T12:06:50;101188.56;;;15.12;100.00
20256;BME280;10286;59.364;18.016;2022-10-31T12:09:18;101192.34;;;15.10;100.00
20256;BME280;10286;59.364;18.016;2022-10-31T12:11:51;101186.06;;;15.47;100.00
20256;BME280;10286;59.364;18.016;2022-10-31T12:14:25;101182.50;;;14.93;100.00
20256;BME280;10286;59.364;18.016;2022-10-31T12:16:55;101185.31;;;15.18;100.00
20256;BME280;10286;59.364;18.016;2022-10-31T12:19:28;101180.25;;;14.98;100.00
20256;BME280;10286;59.364;18.016;2022-10-31T12:22:08;101190.09;;;15.51;100.00
20256;BME280;10286;59.364;18.016;2022-10-31T12:24:46;101183.81;;;16.04;100.00
20256;BME280;10286;59.364;18.016;2022-10-31T12:27:21;101188.66;;;16.44;100.00
20256;BME280;10286;59.364;18.016;2022-10-31T12:29:55;101187.81;;;15.56;100.00
20256;BME280;10286;59.364;18.016;2022-10-31T12:32:28;101182.03;;;14.70;100.00
20256;BME280;10286;59.364;18.016;2022-10-31T12:35:00;101185.88;;;14.49;100.00
20256;BME280;10286;59.364;18.016;2022-10-31T12:37:34;101182.25;;;14.12;100.00
20256;BME280;10286;59.364;18.016;2022-10-31T12:40:11;101183.09;;;13.93;100.00
20256;BME280;10286;59.364;18.016;2022-10-31T12:42:46;101189.22;;;13.84;100.00
20256;BME280;10286;59.364;18.016;2022-10-31T12:45:24;101179.16;;;13.69;100.00
20256;BME280;10286;59.364;18.016;2022-10-31T12:48:04;101177.31;;;13.69;100.00
20256;BME280;10286;59.364;18.016;2022-10-31T12:50:39;101182.78;;;13.59;100.00
20256;BME280;10286;59.364;18.016;2022-10-31T12:53:13;101174.53;;;13.71;100.00